Time;durP1;ratioP1;P1;durP2;ratioP2;P2;SDS_P1;SDS_P2;PMS_P1;PMS_P2;Temp;Humidity;BMP_temperature;BMP_pressure;BME280_temperature;BME280_humidity;BME280_pressure;Samples;Min_cycle;Max_cycle;Signal;HPM_P1;HPM_P2
2022/12/04 00:02:09;;;;;;;48.97;30.53;;;;;;;0.36;100.00;101827.06;5074780;28;20078;-35
2022/12/04 00:04:35;;;;;;;51.43;29.90;;;;;;;0.39;100.00;101826.78;5075897;28;20028;-34
2022/12/04 00:07:00;;;;;;;52.50;31.40;;;;;;;0.46;100.00;101832.38;5074393;28;20028;-34
2022/12/04 00:09:26;;;;;;;50.33;30.63;;;;;;;0.38;100.00;101826.91;5075442;28;20040;-34
2022/12/04 00:11:52;;;;;;;50.85;30.38;;;;;;;0.34;100.00;101821.03;5075466;28;20119;-34
2022/12/04 00:14:17;;;;;;;47.23;29.17;;;;;;;0.38;100.00;101810.94;5075123;28;20037;-34
2022/12/04 00:16:43;;;;;;;48.53;29.73;;;;;;;0.37;100.00;101818.06;5074837;28;20497;-35
2022/12/04 00:19:08;;;;;;;50.75;30.52;;;;;;;0.40;100.00;101816.97;5075187;28;20471;-35
2022/12/04 00:21:34;;;;;;;50.20;30.20;;;;;;;0.32;100.00;101815.00;5074731;28;20029;-34
2022/12/04 00:23:59;;;;;;;50.73;31.23;;;;;;;0.36;100.00;101811.09;5075249;28;20059;-33
2022/12/04 00:26:26;;;;;;;52.00;32.03;;;;;;;0.34;100.00;101813.06;5074499;28;20461;-34
2022/12/04 00:28:52;;;;;;;53.15;31.02;;;;;;;0.37;100.00;101812.75;5075521;28;20691;-33
2022/12/04 00:31:26;;;;;;;53.08;31.73;;;;;;;0.38;100.00;101805.63;5074526;28;20063;-33
2022/12/04 00:33:52;;;;;;;48.15;30.42;;;;;;;0.41;100.00;101798.19;5075230;28;20094;-33
2022/12/04 00:36:20;;;;;;;52.92;31.38;;;;;;;0.29;100.00;101807.28;5074736;28;20033;-33
2022/12/04 00:38:46;;;;;;;55.17;32.58;;;;;;;0.27;100.00;101801.28;5075226;28;20039;-34
2022/12/04 00:41:14;;;;;;;49.78;31.13;;;;;;;0.37;100.00;101803.94;5074732;28;20028;-34
2022/12/04 00:43:40;;;;;;;53.90;31.48;;;;;;;0.28;100.00;101792.31;5073349;28;20036;-34
2022/12/04 00:46:06;;;;;;;45.55;28.55;;;;;;;0.37;100.00;101801.28;5074220;28;20465;-34
2022/12/04 00:48:31;;;;;;;48.10;30.15;;;;;;;0.39;100.00;101807.28;5074717;28;20028;-34
2022/12/04 00:51:04;;;;;;;48.65;29.70;;;;;;;0.36;100.00;101795.13;5074659;28;20031;-34
2022/12/04 00:53:30;;;;;;;54.45;32.28;;;;;;;0.25;100.00;101796.13;5074433;28;20032;-33
2022/12/04 00:55:55;;;;;;;49.75;30.20;;;;;;;0.28;100.00;101792.31;5075293;28;20032;-33
2022/12/04 00:58:21;;;;;;;45.90;29.57;;;;;;;0.40;100.00;101801.00;5074626;28;20032;-34
2022/12/04 01:00:46;;;;;;;53.93;33.17;;;;;;;0.33;100.00;101797.22;5074449;28;20119;-33
2022/12/04 01:03:11;;;;;;;44.50;29.20;;;;;;;0.34;100.00;101801.53;5072902;28;20032;-33
2022/12/04 01:05:40;;;;;;;49.43;29.13;;;;;;;0.33;100.00;101806.03;5074682;28;20025;-33
2022/12/04 01:08:05;;;;;;;50.00;30.10;;;;;;;0.31;100.00;101813.34;5072909;28;20024;-33
2022/12/04 01:10:31;;;;;;;50.22;31.90;;;;;;;0.28;100.00;101805.63;5074298;28;20058;-34
2022/12/04 01:12:56;;;;;;;49.10;30.90;;;;;;;0.32;100.00;101808.84;5073372;28;20032;-34
2022/12/04 01:15:22;;;;;;;48.40;30.50;;;;;;;0.33;100.00;101807.84;5074576;28;20037;-34
2022/12/04 01:17:47;;;;;;;48.63;30.70;;;;;;;0.32;100.00;101814.16;5074001;28;20473;-34
2022/12/04 01:20:14;;;;;;;50.63;29.93;;;;;;;0.36;100.00;101810.25;5073856;28;20040;-34
2022/12/04 01:22:39;;;;;;;49.15;30.38;;;;;;;0.33;100.00;101810.50;5073755;28;20028;-33
2022/12/04 01:25:05;;;;;;;46.63;30.20;;;;;;;0.24;100.00;101799.75;5074025;28;20349;-33
2022/12/04 01:27:30;;;;;;;52.33;31.23;;;;;;;0.29;100.00;101814.44;5073703;28;20461;-34
2022/12/04 01:29:56;;;;;;;49.93;30.80;;;;;;;0.24;100.00;101798.88;5073770;28;20032;-33
2022/12/04 01:32:21;;;;;;;51.73;31.67;;;;;;;0.21;100.00;101816.00;5073565;28;20052;-33
2022/12/04 01:34:46;;;;;;;50.77;32.03;;;;;;;0.16;100.00;101798.78;5074427;28;20039;-33
2022/12/04 01:37:12;;;;;;;51.93;31.43;;;;;;;0.22;100.00;101809.69;5073292;28;20120;-34
2022/12/04 01:39:37;;;;;;;49.13;30.03;;;;;;;0.30;100.00;101805.50;5073497;28;20028;-34
2022/12/04 01:42:03;;;;;;;49.37;31.17;;;;;;;0.29;100.00;101817.09;5072701;28;20040;-34
2022/12/04 01:44:30;;;;;;;47.72;31.00;;;;;;;0.14;100.00;101784.75;5073758;28;20116;-34
2022/12/04 01:46:57;;;;;;;49.67;30.77;;;;;;;0.21;100.00;101821.31;5073513;28;20044;-34
2022/12/04 01:49:30;;;;;;;48.00;30.65;;;;;;;0.21;100.00;101807.16;5073957;28;20360;-33
2022/12/04 01:51:59;;;;;;;53.55;34.45;;;;;;;0.12;100.00;101808.00;5073863;28;20024;-34
2022/12/04 01:54:33;;;;;;;48.35;30.88;;;;;;;0.24;100.00;101802.41;5073933;28;20033;-34
2022/12/04 01:57:05;;;;;;;52.10;31.42;;;;;;;0.21;100.00;101791.22;5072395;28;20553;-34
2022/12/04 01:59:37;;;;;;;49.90;32.63;;;;;;;0.13;100.00;101781.25;5073795;28;20032;-33
2022/12/04 02:02:07;;;;;;;54.95;36.30;;;;;;;0.18;100.00;101792.31;5073492;28;20358;-33
2022/12/04 02:04:33;;;;;;;50.92;32.80;;;;;;;0.19;100.00;101799.31;5073212;28;20028;-34
2022/12/04 02:06:58;;;;;;;48.90;31.95;;;;;;;0.26;100.00;101796.94;5073339;28;20086;-34
2022/12/04 02:09:24;;;;;;;49.10;31.57;;;;;;;0.22;100.00;101792.88;5073522;28;20024;-33
2022/12/04 02:12:20;;;;;;;52.55;36.47;;;;;;;0.14;100.00;101796.22;5072788;28;20046;-34
2022/12/04 02:14:54;;;;;;;51.70;32.22;;;;;;;0.16;100.00;101788.97;5073301;28;20028;-33
2022/12/04 02:17:27;;;;;;;47.10;32.08;;;;;;;0.10;100.00;101794.84;5073342;28;20029;-34
2022/12/04 02:20:11;;;;;;;46.42;31.38;;;;;;;0.20;100.00;101790.38;5073242;28;20025;-33
2022/12/04 02:23:01;;;;;;;49.17;30.85;;;;;;;0.18;100.00;101787.00;5072978;28;20036;-33
2022/12/04 02:25:47;;;;;;;47.10;30.30;;;;;;;0.29;100.00;101798.47;5072950;28;20063;-34
2022/12/04 02:28:18;;;;;;;52.42;32.25;;;;;;;0.28;100.00;101789.66;5072889;28;20064;-34
2022/12/04 02:30:44;;;;;;;48.50;31.55;;;;;;;0.31;100.00;101793.88;5072542;28;20111;-34
2022/12/04 02:33:28;;;;;;;50.30;31.27;;;;;;;0.32;100.00;101791.06;5073172;28;20056;-34
2022/12/04 02:36:18;;;;;;;49.35;32.70;;;;;;;0.28;100.00;101791.47;5072798;28;20477;-34
2022/12/04 02:38:59;;;;;;;46.75;30.95;;;;;;;0.19;100.00;101793.16;5060813;28;20079;-34
2022/12/04 02:41:35;;;;;;;53.78;36.13;;;;;;;0.04;100.00;101768.78;5073422;28;20063;-33
2022/12/04 02:44:14;;;;;;;46.53;31.80;;;;;;;0.28;100.00;101792.31;5072864;28;20028;-34
2022/12/04 02:46:44;;;;;;;50.65;33.05;;;;;;;0.24;100.00;101791.78;5073032;28;20036;-33
2022/12/04 02:49:26;;;;;;;52.20;33.20;;;;;;;0.22;100.00;101793.72;5073213;28;20025;-34
2022/12/04 02:51:54;;;;;;;49.00;31.90;;;;;;;0.28;100.00;101781.66;5072985;28;20108;-34
2022/12/04 02:54:45;;;;;;;51.03;34.13;;;;;;;0.32;100.00;101790.22;5072716;28;20032;-34
2022/12/04 02:57:17;;;;;;;45.60;30.95;;;;;;;0.31;100.00;101781.41;4991383;28;20050;-34
2022/12/04 02:59:46;;;;;;;50.45;31.75;;;;;;;0.33;100.00;101778.59;4991757;28;20472;-34
2022/12/04 03:02:35;;;;;;;52.28;34.22;;;;;;;0.23;100.00;101773.28;4991099;28;20121;-34
2022/12/04 03:05:08;;;;;;;50.10;33.08;;;;;;;0.23;100.00;101763.47;4933234;29;20099;-34
2022/12/04 03:07:42;;;;;;;51.25;33.53;;;;;;;0.29;100.00;101759.41;4933748;29;20055;-34
2022/12/04 03:10:15;;;;;;;45.78;30.15;;;;;;;0.36;100.00;101765.84;4933104;29;20054;-34
2022/12/04 03:12:49;;;;;;;47.92;32.38;;;;;;;0.42;100.00;101769.75;4933544;29;20036;-34
2022/12/04 03:15:28;;;;;;;52.20;34.13;;;;;;;0.31;100.00;101768.09;4932913;29;20039;-34
2022/12/04 03:18:08;;;;;;;46.30;30.23;;;;;;;0.37;100.00;101777.34;4933488;29;20049;-34
2022/12/04 03:20:36;;;;;;;53.55;35.53;;;;;;;0.18;100.00;101765.72;4918750;29;20047;-34
2022/12/04 03:23:07;;;;;;;53.13;35.40;;;;;;;0.19;100.00;101775.38;4933556;29;20044;-34
2022/12/04 03:25:40;;;;;;;50.28;32.47;;;;;;;0.32;100.00;101774.25;4932927;29;20114;-34
2022/12/04 03:28:21;;;;;;;50.90;32.50;;;;;;;0.29;100.00;101758.56;4932931;29;20135;-34
2022/12/04 03:30:53;;;;;;;47.70;30.98;;;;;;;0.33;100.00;101763.47;4933429;29;20036;-34
2022/12/04 03:33:37;;;;;;;50.80;32.28;;;;;;;0.40;100.00;101774.41;4942497;28;20180;-34
2022/12/04 03:36:16;;;;;;;51.10;35.30;;;;;;;0.37;100.00;101772.00;4992491;28;20046;-35
2022/12/04 03:39:02;;;;;;;50.00;32.97;;;;;;;0.32;100.00;101771.59;4994137;28;20042;-34
2022/12/04 03:41:56;;;;;;;48.83;32.55;;;;;;;0.13;100.00;101754.66;5013701;28;20036;-34
2022/12/04 03:44:42;;;;;;;47.28;32.17;;;;;;;0.30;100.00;101768.25;5013923;28;20042;-34
2022/12/04 03:47:24;;;;;;;48.38;32.63;;;;;;;0.23;100.00;101752.81;5014305;28;20046;-34
2022/12/04 03:50:07;;;;;;;50.92;33.72;;;;;;;0.28;100.00;101767.53;5014052;28;20053;-34
2022/12/04 03:52:46;;;;;;;52.83;33.97;;;;;;;0.28;100.00;101764.88;5014006;28;20033;-34
2022/12/04 03:55:39;;;;;;;52.85;33.30;;;;;;;0.28;100.00;101759.56;5014047;28;20092;-34
2022/12/04 03:58:09;;;;;;;51.08;31.73;;;;;;;0.22;100.00;101756.47;5014056;28;20030;-34
2022/12/04 04:00:38;;;;;;;53.20;34.65;;;;;;;0.30;100.00;101762.94;5013459;28;20037;-34
2022/12/04 04:03:23;;;;;;;50.60;33.03;;;;;;;0.22;100.00;101739.69;5013965;28;20108;-34
2022/12/04 04:05:55;;;;;;;52.53;33.22;;;;;;;0.33;100.00;101762.63;5013186;28;20037;-34
2022/12/04 04:08:29;;;;;;;49.15;33.08;;;;;;;0.27;100.00;101747.25;4997451;28;20046;-34
2022/12/04 04:11:13;;;;;;;53.05;33.78;;;;;;;0.33;100.00;101759.97;5013888;28;20026;-34
2022/12/04 04:24:58;;;;;;;49.50;33.95;;;;;;;0.31;100.00;101762.78;5075092;28;20051;-34
2022/12/04 04:27:23;;;;;;;51.63;32.55;;;;;;;0.21;100.00;101752.16;5074853;28;20531;-35
2022/12/04 04:29:50;;;;;;;46.87;30.33;;;;;;;0.34;100.00;101759.84;5075097;28;20139;-35
2022/12/04 04:32:28;;;;;;;51.67;33.50;;;;;;;0.31;100.00;101756.63;5074670;28;20025;-35
2022/12/04 04:35:13;;;;;;;55.03;34.58;;;;;;;0.21;100.00;101754.81;5075780;28;20048;-34
2022/12/04 04:37:52;;;;;;;55.35;34.70;;;;;;;0.23;100.00;101763.47;5075556;28;20040;-34
2022/12/04 04:40:26;;;;;;;48.78;33.17;;;;;;;0.19;100.00;101754.09;5075278;28;20055;-33
2022/12/04 04:43:02;;;;;;;51.60;33.38;;;;;;;0.25;100.00;101758.88;5074631;28;20029;-34
2022/12/04 04:46:03;;;;;;;51.55;33.95;;;;;;;0.24;100.00;101762.50;5075076;28;20109;-34
2022/12/04 04:48:46;;;;;;;50.08;31.60;;;;;;;0.29;100.00;101761.22;4992129;28;20086;-34
2022/12/04 04:51:12;;;;;;;49.78;32.70;;;;;;;0.21;100.00;101751.31;4993019;28;20042;-34
2022/12/04 04:53:43;;;;;;;51.00;32.95;;;;;;;0.24;100.00;101762.50;4992987;28;20081;-34
2022/12/04 04:56:09;;;;;;;53.55;34.03;;;;;;;0.21;100.00;101768.09;4992842;28;20045;-34
2022/12/04 04:58:34;;;;;;;48.15;31.63;;;;;;;0.28;100.00;101767.53;4993211;28;20352;-34
2022/12/04 05:01:03;;;;;;;49.23;33.03;;;;;;;0.31;100.00;101760.13;4993179;28;20030;-34
2022/12/04 05:03:30;;;;;;;45.72;30.63;;;;;;;0.33;100.00;101755.47;4993271;28;20301;-34
2022/12/04 05:05:55;;;;;;;53.95;33.90;;;;;;;0.33;100.00;101762.63;4992718;28;20049;-34
2022/12/04 05:08:21;;;;;;;48.10;32.65;;;;;;;0.33;100.00;101768.78;4992620;28;20038;-34
2022/12/04 05:10:46;;;;;;;50.00;33.33;;;;;;;0.31;100.00;101768.09;4992421;28;20053;-34
2022/12/04 05:13:12;;;;;;;48.10;30.20;;;;;;;0.30;100.00;101757.59;4992394;28;20047;-33
2022/12/04 05:15:38;;;;;;;49.55;32.65;;;;;;;0.32;100.00;101761.78;4976112;28;20026;-33
2022/12/04 05:18:04;;;;;;;49.80;33.37;;;;;;;0.29;100.00;101763.88;4992476;28;20046;-33
2022/12/04 05:20:30;;;;;;;56.08;36.58;;;;;;;0.28;100.00;101764.88;4992246;28;20289;-33
2022/12/04 05:22:55;;;;;;;55.90;35.22;;;;;;;0.24;100.00;101772.28;4992586;28;20148;-33
2022/12/04 05:25:21;;;;;;;48.13;31.70;;;;;;;0.31;100.00;101768.09;5036834;28;20480;-33
2022/12/04 05:27:46;;;;;;;51.90;33.13;;;;;;;0.29;100.00;101769.22;5074241;28;20027;-34
2022/12/04 05:30:11;;;;;;;51.27;33.07;;;;;;;0.33;100.00;101776.75;5073614;28;20029;-34
2022/12/04 05:32:37;;;;;;;51.15;32.25;;;;;;;0.27;100.00;101768.53;5074278;28;20523;-34
2022/12/04 05:35:02;;;;;;;54.17;33.63;;;;;;;0.17;100.00;101764.03;5074555;28;20047;-33
2022/12/04 05:37:28;;;;;;;47.93;31.37;;;;;;;0.32;100.00;101766.28;5074135;28;20067;-33
2022/12/04 05:39:53;;;;;;;51.17;32.30;;;;;;;0.24;100.00;101762.50;5073547;28;20500;-34
2022/12/04 05:42:19;;;;;;;50.97;33.43;;;;;;;0.36;100.00;101765.84;5074037;28;20050;-34
2022/12/04 05:44:44;;;;;;;49.93;31.90;;;;;;;0.31;100.00;101752.13;5073462;28;20120;-33
2022/12/04 05:47:09;;;;;;;48.53;31.87;;;;;;;0.36;100.00;101773.84;5073252;28;20575;-34
2022/12/04 05:49:35;;;;;;;50.97;33.80;;;;;;;0.33;100.00;101758.13;5073400;28;20519;-34
2022/12/04 05:52:02;;;;;;;53.60;34.93;;;;;;;0.24;100.00;101759.84;5074123;28;20030;-33
2022/12/04 05:54:27;;;;;;;51.70;32.97;;;;;;;0.23;100.00;101741.34;5072967;28;20103;-33
2022/12/04 05:56:52;;;;;;;53.90;33.07;;;;;;;0.34;100.00;101757.19;5073737;28;20520;-35
2022/12/04 05:59:18;;;;;;;50.90;32.43;;;;;;;0.29;100.00;101745.25;5073189;28;20495;-34
2022/12/04 06:01:44;;;;;;;53.10;35.80;;;;;;;0.30;100.00;101753.13;5073229;28;20063;-34
2022/12/04 06:04:10;;;;;;;51.65;33.75;;;;;;;0.32;100.00;101756.47;5071895;28;20024;-34
2022/12/04 06:06:37;;;;;;;53.58;34.58;;;;;;;0.31;100.00;101748.63;5072860;28;20465;-34
2022/12/04 06:09:04;;;;;;;48.78;32.33;;;;;;;0.30;100.00;101742.47;5072113;28;20033;-34
2022/12/04 06:11:32;;;;;;;49.20;32.92;;;;;;;0.35;100.00;101748.22;5071821;28;20078;-34
2022/12/04 06:13:59;;;;;;;51.58;31.58;;;;;;;0.44;100.00;101743.84;5073612;28;20028;-35
2022/12/04 06:16:30;;;;;;;51.60;32.88;;;;;;;0.38;100.00;101741.75;5072755;28;20025;-34
2022/12/04 06:18:57;;;;;;;49.88;32.53;;;;;;;0.32;100.00;101742.31;5072786;28;20032;-34
2022/12/04 06:21:25;;;;;;;50.03;32.35;;;;;;;0.42;100.00;101743.16;5073035;28;20024;-34
2022/12/04 06:23:51;;;;;;;53.05;35.63;;;;;;;0.32;100.00;101745.81;5072918;28;20476;-34
2022/12/04 06:26:17;;;;;;;;;;;;;;;0.43;100.00;101739.50;5072149;28;20153;-34
2022/12/04 06:28:43;;;;;;;53.90;34.15;;;;;;;0.33;100.00;101750.16;5073154;28;19908;-34
2022/12/04 06:31:11;;;;;;;50.77;32.70;;;;;;;0.41;100.00;101746.81;5072605;28;20036;-34
2022/12/04 06:33:37;;;;;;;49.55;33.40;;;;;;;0.40;100.00;101745.13;5072936;28;20044;-35
2022/12/04 06:36:05;;;;;;;52.63;34.30;;;;;;;0.35;100.00;101753.53;5073444;28;20028;-34
2022/12/04 06:38:31;;;;;;;50.90;34.15;;;;;;;0.25;100.00;101742.91;5073551;28;20166;-34
2022/12/04 06:40:56;;;;;;;49.70;33.72;;;;;;;0.33;100.00;101757.31;5072826;28;20056;-35
2022/12/04 06:43:23;;;;;;;50.10;32.47;;;;;;;0.28;100.00;101752.41;5073308;28;20066;-34
2022/12/04 06:45:48;;;;;;;50.30;31.73;;;;;;;0.24;100.00;101745.69;5072539;28;20024;-34
2022/12/04 06:48:14;;;;;;;50.42;33.05;;;;;;;0.30;100.00;101754.94;5072455;28;20035;-34
2022/12/04 06:50:39;;;;;;;52.80;33.67;;;;;;;0.32;100.00;101755.63;5072916;28;20028;-35
2022/12/04 06:53:05;;;;;;;51.20;32.87;;;;;;;0.28;100.00;101754.22;5072898;28;20214;-35
2022/12/04 06:55:30;;;;;;;52.93;35.30;;;;;;;0.21;100.00;101762.78;5072940;28;20033;-34
2022/12/04 06:57:55;;;;;;;46.70;31.03;;;;;;;0.30;100.00;101763.75;5073167;28;20020;-35
2022/12/04 07:00:21;;;;;;;46.83;30.13;;;;;;;0.37;100.00;101764.03;5072774;28;20533;-35
2022/12/04 07:02:46;;;;;;;49.37;31.97;;;;;;;0.35;100.00;101763.34;5073403;28;20461;-35
2022/12/04 07:05:11;;;;;;;44.73;30.07;;;;;;;0.41;100.00;101765.44;5071719;28;20028;-34
2022/12/04 07:07:37;;;;;;;45.87;31.33;;;;;;;0.33;100.00;101762.63;5072336;28;20366;-35
2022/12/04 07:10:03;;;;;;;48.73;31.83;;;;;;;0.33;100.00;101766.13;5072598;28;20423;-34
2022/12/04 07:12:28;;;;;;;48.30;31.17;;;;;;;0.32;100.00;101766.28;5075755;28;20392;-34
2022/12/04 07:14:54;;;;;;;47.67;31.00;;;;;;;0.32;100.00;101768.94;5076588;28;20119;-34
2022/12/04 07:17:19;;;;;;;44.40;30.90;;;;;;;0.25;100.00;101766.00;5076793;28;20090;-35
2022/12/04 07:19:44;;;;;;;43.57;29.10;;;;;;;0.35;100.00;101776.66;5077058;28;20431;-34
2022/12/04 07:22:10;;;;;;;42.60;29.47;;;;;;;0.32;100.00;101776.91;5075795;28;20029;-34
2022/12/04 07:24:36;;;;;;;45.70;30.80;;;;;;;0.30;100.00;101785.06;5076553;28;20087;-35
2022/12/04 07:27:02;;;;;;;;;;;;;;;0.41;100.00;101794.69;5059087;28;20462;-35
2022/12/04 07:29:27;;;;;;;42.92;28.02;;;;;;;0.39;100.00;101799.31;5076201;28;19912;-35
2022/12/04 07:31:52;;;;;;;42.60;28.20;;;;;;;0.39;100.00;101794.84;5076044;28;20567;-34
2022/12/04 07:34:18;;;;;;;43.20;29.23;;;;;;;0.25;100.00;101787.28;5076292;28;20044;-34
2022/12/04 07:36:43;;;;;;;43.97;30.20;;;;;;;0.32;100.00;101793.72;5074427;28;20074;-35
2022/12/04 07:39:09;;;;;;;39.53;29.13;;;;;;;0.28;100.00;101794.97;5075662;28;20036;-42
2022/12/04 07:41:34;;;;;;;44.38;29.85;;;;;;;0.34;100.00;101785.59;5075748;28;20107;-35
2022/12/04 07:43:59;;;;;;;40.93;28.03;;;;;;;0.41;100.00;101792.03;5075978;28;20031;-35
2022/12/04 07:46:26;;;;;;;40.87;27.63;;;;;;;0.40;100.00;101774.41;5075868;28;20044;-34
2022/12/04 07:48:55;;;;;;;39.90;28.35;;;;;;;0.33;100.00;101784.75;5075641;28;20024;-34
2022/12/04 07:51:22;;;;;;;45.40;30.02;;;;;;;0.34;100.00;101791.78;5075347;28;20029;-34
2022/12/04 07:53:50;;;;;;;43.28;29.27;;;;;;;0.25;100.00;101769.50;5076469;28;20096;-34
2022/12/04 07:56:16;;;;;;;42.50;28.95;;;;;;;0.41;100.00;101798.19;5075509;28;20017;-34
2022/12/04 07:58:42;;;;;;;43.58;28.48;;;;;;;0.32;100.00;101782.25;5075477;28;20035;-34
2022/12/04 08:01:15;;;;;;;37.63;27.65;;;;;;;0.41;100.00;101800.84;5075553;28;20028;-34
2022/12/04 08:03:41;;;;;;;39.20;27.05;;;;;;;0.41;100.00;101797.34;5075875;28;20029;-34
2022/12/04 08:06:07;;;;;;;37.03;25.98;;;;;;;0.46;100.00;101809.25;5075634;28;20020;-34
2022/12/04 08:08:33;;;;;;;38.97;26.77;;;;;;;0.36;100.00;101788.97;5075717;28;20040;-35
2022/12/04 08:10:59;;;;;;;40.88;26.63;;;;;;;0.41;100.00;101803.53;5075252;28;20361;-34
2022/12/04 08:13:25;;;;;;;39.35;26.75;;;;;;;0.36;100.00;101792.47;5075291;28;20043;-34
2022/12/04 08:15:50;;;;;;;38.40;26.27;;;;;;;0.42;100.00;101788.38;5074979;28;20115;-34
2022/12/04 08:18:16;;;;;;;38.75;27.35;;;;;;;0.45;100.00;101794.28;5075587;28;20108;-35
2022/12/04 08:20:42;;;;;;;37.88;25.92;;;;;;;0.50;100.00;101804.50;5074887;28;20021;-34
2022/12/04 08:23:07;;;;;;;36.72;25.00;;;;;;;0.46;100.00;101800.44;5075564;28;20040;-34
2022/12/04 08:25:32;;;;;;;38.17;26.37;;;;;;;0.50;100.00;101809.81;5074765;28;20081;-34
2022/12/04 08:27:58;;;;;;;35.33;24.73;;;;;;;0.61;100.00;101817.66;5075190;28;20032;-34
2022/12/04 08:30:23;;;;;;;38.00;26.63;;;;;;;0.47;100.00;101824.22;5075080;28;20060;-34
2022/12/04 08:32:48;;;;;;;36.17;24.93;;;;;;;0.57;100.00;101826.06;5075567;28;20028;-34
2022/12/04 08:35:14;;;;;;;37.00;27.07;;;;;;;0.48;100.00;101819.75;5075349;28;20052;-34
2022/12/04 08:37:39;;;;;;;36.20;25.80;;;;;;;0.57;100.00;101818.91;5075451;28;20021;-34
2022/12/04 08:40:05;;;;;;;37.27;24.93;;;;;;;0.59;100.00;101813.47;5074549;28;20107;-34
2022/12/04 08:42:31;;;;;;;;;;;;;;;0.66;100.00;101811.91;5075198;28;20123;-34
2022/12/04 08:44:56;;;;;;;34.63;24.08;;;;;;;0.63;100.00;101809.50;5074718;28;20369;-34
2022/12/04 08:47:21;;;;;;;34.80;24.33;;;;;;;0.65;100.00;101803.06;5075112;28;20159;-34
2022/12/04 08:49:47;;;;;;;35.13;25.13;;;;;;;0.62;100.00;101811.34;5074496;28;20052;-34
2022/12/04 08:52:12;;;;;;;35.10;22.87;;;;;;;0.74;100.00;101812.03;5074511;28;20032;-34
2022/12/04 08:54:37;;;;;;;33.63;23.90;;;;;;;0.79;100.00;101804.44;5074285;28;20124;-34
2022/12/04 08:57:03;;;;;;;34.17;23.67;;;;;;;0.76;100.00;101797.56;5074470;28;20035;-34
2022/12/04 08:59:28;;;;;;;34.37;24.53;;;;;;;0.78;100.00;101794.75;5074601;28;20035;-34
2022/12/04 09:01:54;;;;;;;35.17;24.83;;;;;;;0.78;100.00;101802.75;5074846;28;20365;-34
2022/12/04 09:04:19;;;;;;;33.00;22.63;;;;;;;0.86;100.00;101794.06;5074599;28;20338;-34
2022/12/04 09:06:44;;;;;;;35.00;24.80;;;;;;;0.80;100.00;101802.63;5074248;28;20063;-34
2022/12/04 09:09:11;;;;;;;32.17;22.87;;;;;;;0.67;100.00;101769.16;5074844;28;20052;-34
2022/12/04 09:11:36;;;;;;;32.95;23.40;;;;;;;0.70;100.00;101770.69;5073541;28;20128;-34
2022/12/04 09:14:02;;;;;;;34.67;23.27;;;;;;;0.85;100.00;101800.38;5073794;28;20103;-34
2022/12/04 09:16:27;;;;;;;33.15;22.88;;;;;;;0.84;100.00;101793.38;5073993;28;20038;-35
2022/12/04 09:18:53;;;;;;;33.20;23.10;;;;;;;0.85;100.00;101805.69;5074096;28;20419;-34
2022/12/04 09:21:20;;;;;;;32.30;23.38;;;;;;;0.92;100.00;101802.28;5072564;28;20417;-34
2022/12/04 09:23:45;;;;;;;33.33;23.05;;;;;;;0.92;100.00;101801.47;5072874;28;20465;-43
2022/12/04 09:26:22;;;;;;;31.07;21.63;;;;;;;0.93;100.00;101797.84;5074085;28;20036;-34
2022/12/04 09:28:48;;;;;;;30.38;22.10;;;;;;;0.98;100.00;101798.25;5073512;28;20103;-33
2022/12/04 09:31:14;;;;;;;32.20;22.05;;;;;;;0.82;100.00;101782.84;5074472;28;20369;-34
2022/12/04 09:33:39;;;;;;;30.45;22.08;;;;;;;1.00;100.00;101812.25;5073365;28;20052;-33
2022/12/04 09:36:05;;;;;;;29.07;19.93;;;;;;;1.10;100.00;101818.38;5073978;28;20029;-33
2022/12/04 09:38:30;;;;;;;27.92;19.50;;;;;;;1.02;100.00;101795.13;5073450;28;20025;-33
2022/12/04 09:41:22;;;;;;;30.50;21.13;;;;;;;0.96;100.00;101802.84;5073243;28;20071;-33
2022/12/04 09:44:05;;;;;;;30.60;21.52;;;;;;;0.95;100.00;101822.47;5073699;28;20035;-34
2022/12/04 09:46:41;;;;;;;28.15;19.63;;;;;;;0.93;100.00;101819.13;5073953;28;20427;-35
2022/12/04 09:49:15;;;;;;;23.88;17.23;;;;;;;0.84;100.00;101807.53;5073718;28;20074;-34
2022/12/04 09:51:41;;;;;;;25.05;17.52;;;;;;;0.88;100.00;101813.38;5073740;28;20056;-34
2022/12/04 09:54:15;;;;;;;23.63;16.73;;;;;;;0.84;100.00;101826.16;5073473;28;20032;-34
2022/12/04 09:56:47;;;;;;;24.75;17.15;;;;;;;0.81;100.00;101814.94;5073697;28;20028;-34
2022/12/04 09:59:28;;;;;;;25.73;18.50;;;;;;;0.79;100.00;101803.63;5073780;28;20178;-34
2022/12/04 10:02:19;;;;;;;27.50;19.05;;;;;;;0.82;100.00;101811.28;5073560;28;20368;-34
2022/12/04 10:04:45;;;;;;;24.65;18.38;;;;;;;0.83;100.00;101810.31;5073195;28;20029;-34
2022/12/04 10:07:17;;;;;;;28.08;18.75;;;;;;;0.62;100.00;101811.34;5073455;28;20119;-34
2022/12/04 10:10:15;;;;;;;24.00;18.15;;;;;;;0.71;100.00;101814.97;5073616;28;20429;-34
2022/12/04 10:12:40;;;;;;;27.17;18.30;;;;;;;0.72;100.00;101824.63;5073182;28;20028;-34
2022/12/04 10:15:24;;;;;;;23.80;17.47;;;;;;;0.76;100.00;101816.22;5073194;28;20483;-34
2022/12/04 10:18:02;;;;;;;28.08;18.83;;;;;;;0.75;100.00;101817.19;5072853;28;20025;-34
2022/12/04 10:20:30;;;;;;;27.08;18.17;;;;;;;0.73;100.00;101820.97;5073380;28;20166;-34
2022/12/04 10:22:55;;;;;;;25.10;17.65;;;;;;;0.75;100.00;101817.19;5073077;28;20131;-34
2022/12/04 10:25:22;;;;;;;23.80;17.57;;;;;;;0.80;100.00;101813.28;5073754;28;20149;-34
2022/12/04 10:27:54;;;;;;;25.95;18.15;;;;;;;0.81;100.00;101802.47;5072945;28;20074;-34
2022/12/04 10:30:23;;;;;;;26.75;18.67;;;;;;;0.70;100.00;101798.16;5073571;28;20089;-34
2022/12/04 10:32:56;;;;;;;23.95;16.30;;;;;;;0.80;100.00;101805.28;5072001;28;20571;-34
2022/12/04 10:35:24;;;;;;;28.42;18.08;;;;;;;0.81;100.00;101801.63;5073523;28;20041;-34
2022/12/04 10:37:56;;;;;;;25.48;18.17;;;;;;;0.67;100.00;101803.75;5073186;28;20031;-34
2022/12/04 10:40:30;;;;;;;26.15;17.92;;;;;;;0.73;100.00;101805.88;5072799;28;20029;-34
2022/12/04 10:43:13;;;;;;;26.40;18.05;;;;;;;0.58;100.00;101785.13;5072818;28;20469;-34
2022/12/04 10:45:39;;;;;;;26.17;18.98;;;;;;;0.66;100.00;101814.56;5074929;28;20091;-34
2022/12/04 10:48:06;;;;;;;24.60;17.30;;;;;;;0.57;100.00;101797.63;5076560;28;20040;-34
2022/12/04 10:50:32;;;;;;;26.30;18.52;;;;;;;0.69;100.00;101819.59;5076520;28;20025;-34
2022/12/04 10:52:58;;;;;;;25.65;17.90;;;;;;;0.74;100.00;101812.88;5077434;28;20044;-34
2022/12/04 10:55:32;;;;;;;24.07;17.70;;;;;;;0.79;100.00;101808.94;5077071;28;20055;-34
2022/12/04 10:57:58;;;;;;;23.83;17.63;;;;;;;0.64;100.00;101795.25;5077360;28;20607;-34
2022/12/04 11:00:23;;;;;;;25.43;17.70;;;;;;;0.80;100.00;101808.78;5076714;28;20037;-34
2022/12/04 11:02:50;;;;;;;28.00;18.73;;;;;;;0.81;100.00;101804.31;5077225;28;20422;-34
2022/12/04 11:05:27;;;;;;;23.20;17.52;;;;;;;0.79;100.00;101800.94;5076329;28;20032;-34
2022/12/04 11:07:54;;;;;;;27.42;17.48;;;;;;;0.81;100.00;101794.47;5075894;28;20024;-34
2022/12/04 11:10:34;;;;;;;24.42;16.95;;;;;;;0.86;100.00;101791.38;5076410;28;20033;-35
2022/12/04 11:13:12;;;;;;;25.42;18.00;;;;;;;0.89;100.00;101781.28;5075137;28;20083;-34
2022/12/04 11:15:56;;;;;;;27.02;17.60;;;;;;;0.77;100.00;101783.28;5076186;28;20467;-34
2022/12/04 11:18:25;;;;;;;24.98;16.75;;;;;;;0.84;100.00;101788.03;5076389;28;20067;-34
2022/12/04 11:20:57;;;;;;;24.00;16.75;;;;;;;0.81;100.00;101783.84;5076016;28;20500;-34
2022/12/04 11:23:23;;;;;;;24.63;17.23;;;;;;;0.73;100.00;101781.91;5076609;28;20062;-34
2022/12/04 11:25:55;;;;;;;23.95;17.45;;;;;;;0.73;100.00;101776.59;5076147;28;20112;-34
2022/12/04 11:28:24;;;;;;;27.58;17.65;;;;;;;0.75;100.00;101766.63;5076155;28;20078;-35
2022/12/04 11:30:53;;;;;;;23.25;18.02;;;;;;;0.78;100.00;101762.81;5075760;28;20468;-35
2022/12/04 11:33:36;;;;;;;23.75;17.42;;;;;;;0.77;100.00;101771.78;5076249;28;20051;-35